createdAt,value
2019-01-03T00:01:54.810Z,6.97
2019-01-03T00:04:42.292Z,4.37
2019-01-03T00:07:35.108Z,3.97
2019-01-03T00:10:27.175Z,4.67
2019-01-03T00:13:30.430Z,5.80
2019-01-03T00:16:22.081Z,7.57
2019-01-03T00:19:09.260Z,6.40
2019-01-03T00:22:01.331Z,7.90
2019-01-03T00:24:53.058Z,6.50
2019-01-03T00:28:00.216Z,4.80
2019-01-03T00:30:47.596Z,5.30
2019-01-03T00:33:36.379Z,3.63
2019-01-03T00:36:23.751Z,3.87
2019-01-03T00:39:19.386Z,7.73
2019-01-03T00:42:17.111Z,5.30
2019-01-03T00:45:05.946Z,5.53
2019-01-03T00:47:55.852Z,4.73
2019-01-03T00:50:51.304Z,4.00
2019-01-03T00:53:47.183Z,4.97
2019-01-03T00:56:34.819Z,6.73
2019-01-03T00:59:26.764Z,5.97
2019-01-03T01:02:14.204Z,5.50
2019-01-03T01:05:14.035Z,7.03
2019-01-03T01:08:21.458Z,3.83
2019-01-03T01:11:09.292Z,4.30
2019-01-03T01:14:13.329Z,3.97
2019-01-03T01:17:00.753Z,4.00
2019-01-03T01:20:07.720Z,4.50
2019-01-03T01:22:52.432Z,3.07
2019-01-03T01:25:34.729Z,3.77
2019-01-03T01:28:22.160Z,3.80
2019-01-03T01:31:09.488Z,3.63
2019-01-03T01:33:56.867Z,3.03
2019-01-03T01:36:45.800Z,3.27
2019-01-03T01:39:33.349Z,3.30
2019-01-03T01:42:28.061Z,2.93
2019-01-03T01:45:16.765Z,3.20
2019-01-03T01:48:18.000Z,3.13
2019-01-03T01:51:05.370Z,3.47
2019-01-03T01:53:55.942Z,2.50
2019-01-03T01:56:50.751Z,2.70
2019-01-03T01:59:38.247Z,3.00
2019-01-03T02:02:25.651Z,2.43
2019-01-03T02:05:33.193Z,3.60
2019-01-03T02:08:21.463Z,3.13
2019-01-03T02:11:10.268Z,2.33
2019-01-03T02:14:08.033Z,2.40
2019-01-03T02:17:12.316Z,3.00
2019-01-03T02:20:16.452Z,4.07
2019-01-03T02:23:11.047Z,2.93
2019-01-03T02:25:55.494Z,2.67
2019-01-03T02:28:42.600Z,2.83
2019-01-03T02:31:30.033Z,2.30
2019-01-03T02:34:17.500Z,2.43
2019-01-03T02:37:06.245Z,3.40
2019-01-03T02:39:53.944Z,2.67
2019-01-03T02:42:45.700Z,1.90
2019-01-03T02:45:33.116Z,3.57
2019-01-03T02:48:36.857Z,2.23
2019-01-03T02:51:25.655Z,2.77
2019-01-03T02:54:14.400Z,3.20
2019-01-03T02:57:01.828Z,2.03
2019-01-03T02:59:49.213Z,3.20
2019-01-03T03:02:36.580Z,2.93
2019-01-03T03:05:23.356Z,2.17
2019-01-03T03:08:11.827Z,2.20
2019-01-03T03:11:00.604Z,2.50
2019-01-03T03:13:44.847Z,2.70
2019-01-03T03:16:39.645Z,3.53
2019-01-03T03:19:39.775Z,2.97
2019-01-03T03:22:31.303Z,3.90
2019-01-03T03:25:29.333Z,2.33
2019-01-03T03:28:33.008Z,2.67
2019-01-03T03:31:20.634Z,3.80
2019-01-03T03:34:21.853Z,2.53
2019-01-03T03:37:10.651Z,2.60
2019-01-03T03:40:09.348Z,3.20
2019-01-03T03:42:51.176Z,2.00
2019-01-03T03:45:39.895Z,1.57
2019-01-03T03:48:27.504Z,1.63
2019-01-03T03:51:19.108Z,1.87
2019-01-03T03:54:06.601Z,2.47
2019-01-03T03:56:55.354Z,2.13
2019-01-03T03:59:42.788Z,1.83
2019-01-03T04:02:30.301Z,2.00
2019-01-03T04:05:17.682Z,2.70
2019-01-03T04:08:04.945Z,1.77
2019-01-03T04:10:56.779Z,2.60
2019-01-03T04:13:44.682Z,2.83
2019-01-03T04:16:34.061Z,2.13
2019-01-03T04:19:37.836Z,2.23
2019-01-03T04:22:25.433Z,2.40
2019-01-03T04:25:17.103Z,1.60
2019-01-03T04:27:59.372Z,4.10
2019-01-03T04:30:46.629Z,2.73
2019-01-03T04:33:34.555Z,2.60
2019-01-03T04:36:26.519Z,2.63
2019-01-03T04:39:15.793Z,3.00
2019-01-03T04:42:19.776Z,3.37
2019-01-03T04:45:20.964Z,4.57
2019-01-03T04:48:08.573Z,2.93
2019-01-03T04:50:57.017Z,2.93
2019-01-03T04:53:48.901Z,2.00
2019-01-03T04:56:36.289Z,3.20
2019-01-03T04:59:37.548Z,7.10
2019-01-03T05:02:25.785Z,6.40
2019-01-03T05:05:17.380Z,8.27
2019-01-03T05:08:15.410Z,2.37
2019-01-03T05:11:01.673Z,4.63
2019-01-03T05:14:05.725Z,4.80
2019-01-03T05:17:03.210Z,3.50
2019-01-03T05:19:55.147Z,2.13
2019-01-03T05:22:42.644Z,3.80
2019-01-03T05:25:32.732Z,3.27
2019-01-03T05:28:33.773Z,2.57
2019-01-03T05:31:40.716Z,2.27
2019-01-03T05:34:38.378Z,4.27
2019-01-03T05:37:25.598Z,3.17
2019-01-03T05:40:17.193Z,2.13
2019-01-03T05:43:04.772Z,4.70
2019-01-03T05:45:52.230Z,2.07
2019-01-03T05:48:43.851Z,2.43
2019-01-03T05:51:38.557Z,3.70
2019-01-03T05:54:36.740Z,1.67
2019-01-03T05:57:25.616Z,4.43
2019-01-03T06:00:13.465Z,2.70
2019-01-03T06:03:14.663Z,5.40
2019-01-03T06:06:03.464Z,3.07
2019-01-03T06:08:52.208Z,4.40
2019-01-03T06:11:52.836Z,4.60
2019-01-03T06:14:40.364Z,4.67
2019-01-03T06:17:38.123Z,7.43
2019-01-03T06:20:27.172Z,7.37
2019-01-03T06:23:21.848Z,5.83
2019-01-03T06:26:21.033Z,6.13
2019-01-03T06:29:16.075Z,7.60
2019-01-03T06:32:16.663Z,10.83
2019-01-03T06:35:05.449Z,6.30
2019-01-03T06:37:59.993Z,8.90
2019-01-03T06:40:46.708Z,7.53
2019-01-03T06:43:34.359Z,8.93
2019-01-03T06:46:25.948Z,6.20
2019-01-03T06:49:24.124Z,7.67
2019-01-03T06:52:09.174Z,6.73
2019-01-03T06:55:00.966Z,6.03
2019-01-03T06:57:58.935Z,6.10
2019-01-03T07:00:46.449Z,9.10
2019-01-03T07:03:53.800Z,5.53
2019-01-03T07:06:40.848Z,5.67
2019-01-03T07:09:28.192Z,6.10
2019-01-03T07:12:28.961Z,8.60
2019-01-03T07:15:26.648Z,5.80
2019-01-03T07:18:15.461Z,6.83
2019-01-03T07:21:16.580Z,7.50
2019-01-03T07:24:01.755Z,9.17
2019-01-03T07:27:03.459Z,6.73
2019-01-03T07:29:50.899Z,8.47
2019-01-03T07:32:45.700Z,9.23
2019-01-03T07:35:33.124Z,12.93
2019-01-03T07:38:22.039Z,7.60
2019-01-03T07:41:09.584Z,7.67
2019-01-03T07:44:01.186Z,9.63
2019-01-03T07:47:05.049Z,7.30
2019-01-03T07:49:56.929Z,6.53
2019-01-03T07:52:48.521Z,8.23
2019-01-03T07:55:52.753Z,9.57
2019-01-03T07:58:50.807Z,6.23
2019-01-03T08:01:32.928Z,7.07
2019-01-03T08:04:24.417Z,6.47
2019-01-03T08:07:14.623Z,7.90
2019-01-03T08:10:09.419Z,7.43
2019-01-03T08:13:10.597Z,7.47
2019-01-03T08:16:11.105Z,9.20
2019-01-03T08:19:06.176Z,10.00
2019-01-03T08:21:53.984Z,8.83
2019-01-03T08:24:45.064Z,7.07
2019-01-03T08:27:33.863Z,6.80
2019-01-03T08:30:32.159Z,8.23
2019-01-03T08:33:32.968Z,7.13
2019-01-03T08:36:37.140Z,5.70
2019-01-03T08:39:42.335Z,6.27
2019-01-03T08:42:29.867Z,7.90
2019-01-03T08:45:33.932Z,11.10
2019-01-03T08:48:38.003Z,8.70
2019-01-03T08:51:44.853Z,5.63
2019-01-03T08:54:36.679Z,5.50
2019-01-03T08:57:24.039Z,5.23
2019-01-03T09:00:11.520Z,5.83
2019-01-03T09:03:00.271Z,8.37
2019-01-03T09:05:49.048Z,9.03
2019-01-03T09:08:53.363Z,7.83
2019-01-03T09:11:46.576Z,5.53
2019-01-03T09:14:34.237Z,7.73
2019-01-03T09:17:21.935Z,6.97
2019-01-03T09:20:09.306Z,4.67
2019-01-03T09:22:56.592Z,5.23
2019-01-03T09:25:54.145Z,5.83
2019-01-03T09:28:48.875Z,6.03
2019-01-03T09:31:36.495Z,5.47
2019-01-03T09:34:37.236Z,5.53
2019-01-03T09:37:15.148Z,6.30
2019-01-03T09:40:03.076Z,5.20
2019-01-03T09:43:09.992Z,7.07
2019-01-03T09:45:44.249Z,7.23
2019-01-03T09:48:11.464Z,5.63
2019-01-03T09:50:41.464Z,6.00
2019-01-03T09:53:11.625Z,6.00
2019-01-03T09:55:41.493Z,5.90
2019-01-03T09:58:11.341Z,6.17
2019-01-03T10:00:41.247Z,6.93
2019-01-03T10:03:11.087Z,4.77
2019-01-03T10:05:40.967Z,8.47
2019-01-03T10:08:10.928Z,6.60
2019-01-03T10:10:40.900Z,5.97
2019-01-03T10:13:10.764Z,6.27
2019-01-03T10:15:40.691Z,5.07
2019-01-03T10:18:10.525Z,7.30
2019-01-03T10:20:40.435Z,6.00
2019-01-03T10:23:10.456Z,7.57
2019-01-03T10:25:40.481Z,6.70
2019-01-03T10:28:10.395Z,6.60
2019-01-03T10:30:40.457Z,6.37
2019-01-03T10:33:10.320Z,5.97
2019-01-03T10:35:40.164Z,7.17
2019-01-03T10:38:10.115Z,7.37
2019-01-03T10:40:39.939Z,6.33
2019-01-03T10:43:09.809Z,6.17
2019-01-03T10:45:39.888Z,6.40
2019-01-03T10:48:09.760Z,6.90
2019-01-03T10:50:39.591Z,5.93
2019-01-03T10:53:10.457Z,8.10
2019-01-03T10:55:40.406Z,6.83
2019-01-03T10:58:10.253Z,7.87
2019-01-03T11:00:40.152Z,8.03
2019-01-03T11:03:10.063Z,7.53
2019-01-03T11:05:39.888Z,7.87
2019-01-03T11:08:09.876Z,8.33
2019-01-03T11:10:39.800Z,6.37
2019-01-03T11:13:09.643Z,7.70
2019-01-03T11:15:39.587Z,6.63
2019-01-03T11:18:09.452Z,9.27
2019-01-03T11:20:39.336Z,7.63
2019-01-03T11:23:09.314Z,8.13
2019-01-03T11:25:39.196Z,6.87
2019-01-03T11:28:09.060Z,7.37
2019-01-03T11:30:39.047Z,5.80
2019-01-03T11:33:08.940Z,8.13
2019-01-03T11:35:38.797Z,8.27
2019-01-03T11:38:08.717Z,6.53
2019-01-03T11:40:38.595Z,5.57
2019-01-03T11:43:08.470Z,5.10
2019-01-03T11:45:38.456Z,5.50
2019-01-03T11:48:08.315Z,6.03
2019-01-03T11:50:38.165Z,5.27
2019-01-03T11:53:08.084Z,6.97
2019-01-03T11:55:37.936Z,5.10
2019-01-03T11:58:07.775Z,6.80
2019-01-03T12:00:38.098Z,6.10
2019-01-03T12:03:08.151Z,5.80
2019-01-03T12:05:37.983Z,5.43
2019-01-03T12:08:08.000Z,4.60
2019-01-03T12:10:37.868Z,6.77
2019-01-03T12:13:07.716Z,4.57
2019-01-03T12:15:37.615Z,4.63
2019-01-03T12:18:07.480Z,7.33
2019-01-03T12:20:37.427Z,4.23
2019-01-03T12:23:07.440Z,4.73
2019-01-03T12:25:37.332Z,5.70
2019-01-03T12:28:07.312Z,6.73
2019-01-03T12:30:37.283Z,4.77
2019-01-03T12:33:07.182Z,5.60
2019-01-03T12:35:36.988Z,5.37
2019-01-03T12:38:06.903Z,4.40
2019-01-03T12:40:36.839Z,4.37
2019-01-03T12:43:06.648Z,4.03
2019-01-03T12:45:36.576Z,4.27
2019-01-03T12:48:06.431Z,5.20
2019-01-03T12:50:36.304Z,5.10
2019-01-03T12:53:06.243Z,4.57
2019-01-03T12:55:36.205Z,5.27
2019-01-03T12:58:06.076Z,5.23
2019-01-03T13:00:36.060Z,6.13
2019-01-03T13:03:05.983Z,5.97
2019-01-03T13:05:35.902Z,4.80
2019-01-03T13:08:06.916Z,5.80
2019-01-03T13:10:36.759Z,6.17
2019-01-03T13:13:06.681Z,4.70
2019-01-03T13:15:36.588Z,5.63
2019-01-03T13:18:06.451Z,4.20
2019-01-03T13:20:36.356Z,4.23
2019-01-03T13:23:06.398Z,4.93
2019-01-03T13:25:36.287Z,4.07
2019-01-03T13:28:06.224Z,4.10
2019-01-03T13:30:36.124Z,6.17
2019-01-03T13:33:06.093Z,4.70
2019-01-03T13:35:36.033Z,6.80
2019-01-03T13:38:06.008Z,5.63
2019-01-03T13:40:35.855Z,6.07
2019-01-03T13:43:05.700Z,6.10
2019-01-03T13:45:35.628Z,4.90
2019-01-03T13:48:05.515Z,6.40
2019-01-03T13:50:35.500Z,4.33
2019-01-03T13:53:05.503Z,4.73
2019-01-03T13:55:35.319Z,4.20
2019-01-03T13:58:05.156Z,4.63
2019-01-03T14:00:35.132Z,5.13
2019-01-03T14:03:05.281Z,5.67
2019-01-03T14:05:35.134Z,4.37
2019-01-03T14:08:05.031Z,4.83
2019-01-03T14:10:34.863Z,5.07
2019-01-03T14:13:04.708Z,3.90
2019-01-03T14:15:34.658Z,5.30
2019-01-03T14:18:04.504Z,5.23
2019-01-03T14:20:34.356Z,4.87
2019-01-03T14:23:04.393Z,7.40
2019-01-03T14:25:34.337Z,8.50
2019-01-03T14:28:05.257Z,5.73
2019-01-03T14:30:35.148Z,6.03
2019-01-03T14:33:05.126Z,6.23
2019-01-03T14:35:34.964Z,4.63
2019-01-03T14:38:04.905Z,8.80
2019-01-03T14:40:34.776Z,6.20
2019-01-03T14:43:04.717Z,6.43
2019-01-03T14:45:34.699Z,6.47
2019-01-03T14:48:04.742Z,7.37
2019-01-03T14:50:34.616Z,7.80
2019-01-03T14:53:04.535Z,5.97
2019-01-03T14:55:34.499Z,6.60
2019-01-03T14:58:04.434Z,6.70
2019-01-03T15:00:34.679Z,7.30
2019-01-03T15:03:04.680Z,8.33
2019-01-03T15:05:34.496Z,14.90
2019-01-03T15:08:04.574Z,20.63
2019-01-03T15:10:34.559Z,19.33
2019-01-03T15:13:04.528Z,17.93
2019-01-03T15:15:34.632Z,17.70
2019-01-03T15:18:04.562Z,13.40
2019-01-03T15:20:34.412Z,12.10
2019-01-03T15:23:04.317Z,13.60
2019-01-03T15:25:34.152Z,11.70
2019-01-03T15:28:06.668Z,13.37
2019-01-03T15:30:43.891Z,11.97
2019-01-03T15:33:13.868Z,11.60
2019-01-03T15:35:50.872Z,11.73
2019-01-03T15:38:20.983Z,12.90
2019-01-03T15:40:51.334Z,12.60
2019-01-03T15:43:21.440Z,17.50
2019-01-03T15:45:51.494Z,15.80
2019-01-03T15:48:30.999Z,16.87
2019-01-03T15:51:01.872Z,16.30
2019-01-03T15:53:31.699Z,15.93
2019-01-03T15:56:01.715Z,18.27
2019-01-03T15:58:31.611Z,17.87
2019-01-03T16:01:03.037Z,22.57
2019-01-03T16:03:32.959Z,47.77
2019-01-03T16:06:03.055Z,47.70
2019-01-03T16:08:34.872Z,58.23
2019-01-03T16:11:04.779Z,41.93
2019-01-03T16:13:34.635Z,37.97
2019-01-03T16:16:04.500Z,30.40
2019-01-03T16:18:35.555Z,26.60
2019-01-03T16:21:05.447Z,26.07
2019-01-03T16:23:35.419Z,22.77
2019-01-03T16:26:05.581Z,23.77
2019-01-03T16:28:35.395Z,18.50
2019-01-03T16:31:05.575Z,24.27
2019-01-03T16:33:35.617Z,23.87
2019-01-03T16:36:05.929Z,27.50
2019-01-03T16:38:38.229Z,25.33
2019-01-03T16:41:08.391Z,23.83
2019-01-03T16:43:38.239Z,22.40
2019-01-03T16:46:08.211Z,22.97
2019-01-03T16:48:38.113Z,21.83
2019-01-03T16:51:08.023Z,22.37
2019-01-03T16:53:37.929Z,18.97
2019-01-03T16:56:07.792Z,19.17
2019-01-03T16:58:37.612Z,20.77
2019-01-03T17:01:07.625Z,17.33
2019-01-03T17:03:37.881Z,20.57
2019-01-03T17:06:08.015Z,20.07
2019-01-03T17:08:38.244Z,20.40
2019-01-03T17:11:08.079Z,24.00
2019-01-03T17:13:38.137Z,25.17
2019-01-03T17:16:08.173Z,26.73
2019-01-03T17:18:38.020Z,28.27
2019-01-03T17:21:07.952Z,25.97
2019-01-03T17:23:37.919Z,27.97
2019-01-03T17:26:07.903Z,32.07
2019-01-03T17:28:37.774Z,29.20
2019-01-03T17:31:07.686Z,32.53
2019-01-03T17:33:37.753Z,159.23
2019-01-03T17:36:07.664Z,104.20
2019-01-03T17:38:37.809Z,104.63
2019-01-03T17:41:07.700Z,122.50
2019-01-03T17:43:37.733Z,107.83
2019-01-03T17:46:11.189Z,86.97
2019-01-03T17:48:41.927Z,79.50
2019-01-03T17:51:13.644Z,53.93
2019-01-03T17:53:47.693Z,47.80
2019-01-03T17:56:17.643Z,48.03
2019-01-03T17:58:48.067Z,39.30
2019-01-03T18:01:22.246Z,45.90
2019-01-03T18:03:55.039Z,40.97
2019-01-03T18:06:25.783Z,40.47
2019-01-03T18:08:58.316Z,35.73
2019-01-03T18:11:29.843Z,33.93
2019-01-03T18:14:04.124Z,39.53
2019-01-03T18:16:34.087Z,38.63
2019-01-03T18:19:03.974Z,45.93
2019-01-03T18:21:33.892Z,43.07
2019-01-03T18:24:03.942Z,40.40
2019-01-03T18:26:33.914Z,41.47
2019-01-03T18:29:03.763Z,41.97
2019-01-03T18:31:33.736Z,49.37
2019-01-03T18:34:03.680Z,39.17
2019-01-03T18:36:33.595Z,40.17
2019-01-03T18:39:03.698Z,38.07
2019-01-03T18:41:33.683Z,42.10
2019-01-03T18:44:03.661Z,36.37
2019-01-03T18:46:33.655Z,36.83
2019-01-03T18:49:03.471Z,37.50
2019-01-03T18:51:33.328Z,37.57
2019-01-03T18:54:03.264Z,35.83
2019-01-03T18:56:33.095Z,35.77
2019-01-03T18:59:03.148Z,37.03
2019-01-03T19:01:33.057Z,39.17
2019-01-03T19:04:02.928Z,36.67
2019-01-03T19:06:32.780Z,39.10
2019-01-03T19:09:02.707Z,37.57
2019-01-03T19:11:32.592Z,37.00
2019-01-03T19:14:02.400Z,36.87
2019-01-03T19:16:32.382Z,37.67
2019-01-03T19:19:02.269Z,38.67
2019-01-03T19:21:32.114Z,40.40
2019-01-03T19:24:02.057Z,35.90
2019-01-03T19:26:31.945Z,37.87
2019-01-03T19:29:01.896Z,31.60
2019-01-03T19:31:31.842Z,34.33
2019-01-03T19:34:01.745Z,34.33
2019-01-03T19:36:31.748Z,34.20
2019-01-03T19:39:01.723Z,32.30
2019-01-03T19:41:31.572Z,31.87
2019-01-03T19:44:01.433Z,33.53
2019-01-03T19:46:31.444Z,31.00
2019-01-03T19:49:01.299Z,34.00
2019-01-03T19:51:31.176Z,34.97
2019-01-03T19:54:01.133Z,33.33
2019-01-03T19:56:30.970Z,31.27
2019-01-03T19:59:00.811Z,31.63
2019-01-03T20:01:30.767Z,33.40
2019-01-03T20:04:01.188Z,26.83
2019-01-03T20:06:31.179Z,26.07
2019-01-03T20:09:01.204Z,26.20
2019-01-03T20:11:31.043Z,25.13
2019-01-03T20:14:00.964Z,29.57
2019-01-03T20:16:30.887Z,26.70
2019-01-03T20:19:00.763Z,25.57
2019-01-03T20:21:30.717Z,26.57
2019-01-03T20:24:00.689Z,26.73
2019-01-03T20:26:30.540Z,22.67
2019-01-03T20:29:00.406Z,23.80
2019-01-03T20:31:30.403Z,24.73
2019-01-03T20:34:00.316Z,25.50
2019-01-03T20:36:30.468Z,23.77
2019-01-03T20:39:00.439Z,21.80
2019-01-03T20:41:30.313Z,24.17
2019-01-03T20:44:00.267Z,21.97
2019-01-03T20:46:31.335Z,26.53
2019-01-03T20:49:01.225Z,23.33
2019-01-03T20:51:31.240Z,22.10
2019-01-03T20:54:01.204Z,19.97
2019-01-03T20:56:31.342Z,19.07
2019-01-03T20:59:01.468Z,19.03
2019-01-03T21:01:31.605Z,18.60
2019-01-03T21:04:02.780Z,22.70
2019-01-03T21:06:32.943Z,20.23
2019-01-03T21:09:02.949Z,18.57
2019-01-03T21:11:32.928Z,19.93
2019-01-03T21:14:03.048Z,17.60
2019-01-03T21:16:32.988Z,18.43
2019-01-03T21:19:02.931Z,20.33
2019-01-03T21:21:32.968Z,17.97
2019-01-03T21:24:02.959Z,19.93
2019-01-03T21:26:32.979Z,17.77
2019-01-03T21:29:03.101Z,20.03
2019-01-03T21:31:32.969Z,22.10
2019-01-03T21:34:02.878Z,20.90
2019-01-03T21:36:34.020Z,19.63
2019-01-03T21:39:04.750Z,15.77
2019-01-03T21:41:34.635Z,16.33
2019-01-03T21:44:04.695Z,15.90
2019-01-03T21:46:34.533Z,18.03
2019-01-03T21:49:04.503Z,19.80
2019-01-03T21:51:34.509Z,18.77
2019-01-03T21:54:04.400Z,20.87
2019-01-03T21:56:34.300Z,21.40
2019-01-03T21:59:04.251Z,20.83
2019-01-03T22:01:34.252Z,20.80
2019-01-03T22:04:04.112Z,16.37
2019-01-03T22:06:34.065Z,17.93
2019-01-03T22:09:04.952Z,16.23
2019-01-03T22:11:34.791Z,16.07
2019-01-03T22:14:04.800Z,16.77
2019-01-03T22:16:34.777Z,17.43
2019-01-03T22:19:04.635Z,16.83
2019-01-03T22:21:34.580Z,14.87
2019-01-03T22:24:04.656Z,15.27
2019-01-03T22:26:34.508Z,16.03
2019-01-03T22:29:04.451Z,15.23
2019-01-03T22:31:34.310Z,14.83
2019-01-03T22:34:04.248Z,14.90
2019-01-03T22:36:34.185Z,14.53
2019-01-03T22:39:04.948Z,13.40
2019-01-03T22:41:34.877Z,13.33
2019-01-03T22:44:04.788Z,12.00
2019-01-03T22:46:34.660Z,13.23
2019-01-03T22:49:04.596Z,13.30
2019-01-03T22:51:34.571Z,12.50
2019-01-03T22:54:04.425Z,13.70
2019-01-03T22:56:34.363Z,14.57
2019-01-03T22:59:04.265Z,12.70
2019-01-03T23:01:34.325Z,13.13
2019-01-03T23:04:04.587Z,13.13
2019-01-03T23:06:34.512Z,13.37
2019-01-03T23:09:05.666Z,14.07
2019-01-03T23:11:35.641Z,12.80
2019-01-03T23:14:05.755Z,13.93
2019-01-03T23:16:35.613Z,12.80
2019-01-03T23:19:05.520Z,13.13
2019-01-03T23:21:35.449Z,11.27
2019-01-03T23:24:05.500Z,11.77
2019-01-03T23:26:35.380Z,10.97
2019-01-03T23:29:05.296Z,12.37
2019-01-03T23:31:35.152Z,11.00
2019-01-03T23:34:05.014Z,12.00
2019-01-03T23:36:35.990Z,12.53
2019-01-03T23:39:06.775Z,11.53
2019-01-03T23:41:36.621Z,11.03
2019-01-03T23:44:06.763Z,10.87
2019-01-03T23:46:36.823Z,10.50
2019-01-03T23:49:06.722Z,13.00
2019-01-03T23:51:38.001Z,9.23
2019-01-03T23:54:07.835Z,12.63
2019-01-03T23:56:37.712Z,11.17
2019-01-03T23:59:07.765Z,10.07
